sensor_id;sensor_type;location;lat;lon;timestamp;pressure;altitude;pressure_sealevel;temperature;humidity
65800;BME280;52544;48.116;11.660;2023-06-04T00:02:14;95572.63;;;14.46;100.00
65800;BME280;52544;48.116;11.660;2023-06-04T00:04:40;95574.19;;;14.74;100.00
65800;BME280;52544;48.116;11.660;2023-06-04T00:07:05;95576.69;;;14.76;100.00
65800;BME280;52544;48.116;11.660;2023-06-04T00:09:31;95578.88;;;14.55;100.00
65800;BME280;52544;48.116;11.660;2023-06-04T00:11:56;95573.03;;;14.51;100.00
65800;BME280;52544;48.116;11.660;2023-06-04T00:14:23;95577.81;;;14.30;100.00
65800;BME280;52544;48.116;11.660;2023-06-04T00:16:49;95575.31;;;14.28;100.00
65800;BME280;52544;48.116;11.660;2023-06-04T00:19:14;95573.13;;;14.23;100.00
65800;BME280;52544;48.116;11.660;2023-06-04T00:21:39;95570.22;;;14.17;100.00
65800;BME280;52544;48.116;11.660;2023-06-04T00:24:05;95560.50;;;14.08;100.00
65800;BME280;52544;48.116;11.660;2023-06-04T00:26:31;95563.84;;;14.10;100.00
65800;BME280;52544;48.116;11.660;2023-06-04T00:28:56;95558.78;;;13.81;100.00
65800;BME280;52544;48.116;11.660;2023-06-04T00:31:22;95555.66;;;13.85;100.00
65800;BME280;52544;48.116;11.660;2023-06-04T00:33:48;95558.84;;;14.07;100.00
65800;BME280;52544;48.116;11.660;2023-06-04T00:36:13;95559.81;;;14.23;100.00
65800;BME280;52544;48.116;11.660;2023-06-04T00:38:39;95553.19;;;14.10;100.00
65800;BME280;52544;48.116;11.660;2023-06-04T00:41:05;95550.47;;;14.01;100.00
65800;BME280;52544;48.116;11.660;2023-06-04T00:43:30;95559.81;;;13.88;100.00
65800;BME280;52544;48.116;11.660;2023-06-04T00:45:57;95564.53;;;13.94;100.00
65800;BME280;52544;48.116;11.660;2023-06-04T00:48:22;95564.09;;;13.81;100.00
65800;BME280;52544;48.116;11.660;2023-06-04T00:50:48;95566.66;;;13.72;100.00
65800;BME280;52544;48.116;11.660;2023-06-04T00:53:14;95559.88;;;13.60;100.00
65800;BME280;52544;48.116;11.660;2023-06-04T00:55:40;95559.56;;;13.63;100.00
65800;BME280;52544;48.116;11.660;2023-06-04T00:58:05;95556.97;;;13.54;100.00
65800;BME280;52544;48.116;11.660;2023-06-04T01:00:31;95567.78;;;13.52;100.00
65800;BME280;52544;48.116;11.660;2023-06-04T01:02:58;95561.47;;;13.53;100.00
65800;BME280;52544;48.116;11.660;2023-06-04T01:05:45;95562.00;;;13.29;100.00
65800;BME280;52544;48.116;11.660;2023-06-04T01:08:13;95562.25;;;13.36;100.00
65800;BME280;52544;48.116;11.660;2023-06-04T01:11:00;95567.03;;;13.32;100.00
65800;BME280;52544;48.116;11.660;2023-06-04T01:13:26;95573.16;;;13.05;100.00
65800;BME280;52544;48.116;11.660;2023-06-04T01:15:51;95575.31;;;12.92;100.00
65800;BME280;52544;48.116;11.660;2023-06-04T01:18:25;95578.75;;;13.02;100.00
65800;BME280;52544;48.116;11.660;2023-06-04T01:20:59;95590.16;;;13.12;100.00
65800;BME280;52544;48.116;11.660;2023-06-04T01:23:40;95572.41;;;13.22;100.00
65800;BME280;52544;48.116;11.660;2023-06-04T01:26:11;95574.66;;;13.08;100.00
65800;BME280;52544;48.116;11.660;2023-06-04T01:28:37;95573.78;;;13.27;100.00
65800;BME280;52544;48.116;11.660;2023-06-04T01:31:04;95573.34;;;13.31;100.00
65800;BME280;52544;48.116;11.660;2023-06-04T01:33:33;95584.97;;;13.20;100.00
65800;BME280;52544;48.116;11.660;2023-06-04T01:35:58;95584.84;;;13.12;100.00
65800;BME280;52544;48.116;11.660;2023-06-04T01:38:24;95580.44;;;13.03;100.00
65800;BME280;52544;48.116;11.660;2023-06-04T01:40:49;95586.22;;;12.89;100.00
65800;BME280;52544;48.116;11.660;2023-06-04T01:43:16;95586.91;;;12.91;100.00
65800;BME280;52544;48.116;11.660;2023-06-04T01:45:41;95586.56;;;13.04;100.00
65800;BME280;52544;48.116;11.660;2023-06-04T01:48:07;95584.75;;;12.67;100.00
65800;BME280;52544;48.116;11.660;2023-06-04T01:50:33;95585.88;;;12.64;100.00
65800;BME280;52544;48.116;11.660;2023-06-04T01:52:59;95590.06;;;12.57;100.00
65800;BME280;52544;48.116;11.660;2023-06-04T01:55:24;95585.38;;;12.41;100.00
65800;BME280;52544;48.116;11.660;2023-06-04T01:57:51;95589.84;;;12.41;100.00
65800;BME280;52544;48.116;11.660;2023-06-04T02:00:17;95593.03;;;12.54;100.00
65800;BME280;52544;48.116;11.660;2023-06-04T02:02:46;95591.06;;;12.46;100.00
65800;BME280;52544;48.116;11.660;2023-06-04T02:05:13;95600.44;;;12.41;100.00
65800;BME280;52544;48.116;11.660;2023-06-04T02:07:41;95592.06;;;12.36;100.00
65800;BME280;52544;48.116;11.660;2023-06-04T02:10:17;95589.84;;;12.41;100.00
65800;BME280;52544;48.116;11.660;2023-06-04T02:13:12;95600.59;;;12.49;100.00
65800;BME280;52544;48.116;11.660;2023-06-04T02:15:38;95595.66;;;12.44;100.00
65800;BME280;52544;48.116;11.660;2023-06-04T02:18:17;95593.75;;;12.17;100.00
65800;BME280;52544;48.116;11.660;2023-06-04T02:20:44;95591.09;;;12.17;100.00
65800;BME280;52544;48.116;11.660;2023-06-04T02:23:10;95590.97;;;12.09;100.00
65800;BME280;52544;48.116;11.660;2023-06-04T02:25:36;95592.94;;;12.07;100.00
65800;BME280;52544;48.116;11.660;2023-06-04T02:28:01;95593.06;;;12.06;100.00
65800;BME280;52544;48.116;11.660;2023-06-04T02:30:27;95598.25;;;12.07;100.00
65800;BME280;52544;48.116;11.660;2023-06-04T02:32:52;95596.69;;;12.05;100.00
65800;BME280;52544;48.116;11.660;2023-06-04T02:35:20;95600.19;;;12.24;100.00
65800;BME280;52544;48.116;11.660;2023-06-04T02:37:48;95599.06;;;11.98;100.00
65800;BME280;52544;48.116;11.660;2023-06-04T02:40:14;95596.38;;;11.79;100.00
65800;BME280;52544;48.116;11.660;2023-06-04T02:42:39;95603.50;;;11.78;100.00
65800;BME280;52544;48.116;11.660;2023-06-04T02:45:05;95611.84;;;11.73;100.00
65800;BME280;52544;48.116;11.660;2023-06-04T02:47:31;95608.91;;;11.67;100.00
65800;BME280;52544;48.116;11.660;2023-06-04T02:49:56;95598.75;;;11.82;100.00
65800;BME280;52544;48.116;11.660;2023-06-04T02:52:22;95604.00;;;11.62;100.00
65800;BME280;52544;48.116;11.660;2023-06-04T02:54:48;95603.53;;;11.88;100.00
65800;BME280;52544;48.116;11.660;2023-06-04T02:57:13;95606.47;;;12.14;100.00
65800;BME280;52544;48.116;11.660;2023-06-04T02:59:38;95598.94;;;12.29;100.00
65800;BME280;52544;48.116;11.660;2023-06-04T03:02:04;95597.09;;;12.00;100.00
65800;BME280;52544;48.116;11.660;2023-06-04T03:04:30;95606.88;;;11.90;100.00
65800;BME280;52544;48.116;11.660;2023-06-04T03:07:00;95607.84;;;11.89;100.00
65800;BME280;52544;48.116;11.660;2023-06-04T03:09:26;95609.94;;;12.14;100.00
65800;BME280;52544;48.116;11.660;2023-06-04T03:11:51;95600.16;;;12.15;100.00
65800;BME280;52544;48.116;11.660;2023-06-04T03:14:17;95600.03;;;11.97;100.00
65800;BME280;52544;48.116;11.660;2023-06-04T03:16:43;95602.09;;;11.64;100.00
65800;BME280;52544;48.116;11.660;2023-06-04T03:19:10;95615.00;;;11.48;100.00
65800;BME280;52544;48.116;11.660;2023-06-04T03:21:36;95616.78;;;11.38;100.00
65800;BME280;52544;48.116;11.660;2023-06-04T03:24:06;95614.59;;;11.43;100.00
65800;BME280;52544;48.116;11.660;2023-06-04T03:26:32;95615.69;;;11.40;100.00
65800;BME280;52544;48.116;11.660;2023-06-04T03:28:57;95621.41;;;11.36;100.00
65800;BME280;52544;48.116;11.660;2023-06-04T03:31:22;95622.81;;;11.40;100.00
65800;BME280;52544;48.116;11.660;2023-06-04T03:33:48;95631.31;;;11.43;100.00
65800;BME280;52544;48.116;11.660;2023-06-04T03:36:13;95635.22;;;11.49;100.00
65800;BME280;52544;48.116;11.660;2023-06-04T03:38:38;95634.31;;;11.29;100.00
65800;BME280;52544;48.116;11.660;2023-06-04T03:41:04;95634.22;;;11.40;100.00
65800;BME280;52544;48.116;11.660;2023-06-04T03:43:29;95641.63;;;11.46;100.00
65800;BME280;52544;48.116;11.660;2023-06-04T03:45:55;95643.56;;;11.35;100.00
65800;BME280;52544;48.116;11.660;2023-06-04T03:48:20;95643.66;;;11.73;100.00
65800;BME280;52544;48.116;11.660;2023-06-04T03:50:45;95643.19;;;11.59;100.00
65800;BME280;52544;48.116;11.660;2023-06-04T03:53:11;95644.41;;;11.35;100.00
65800;BME280;52544;48.116;11.660;2023-06-04T03:55:37;95641.34;;;11.40;100.00
65800;BME280;52544;48.116;11.660;2023-06-04T03:58:02;95642.53;;;11.76;100.00
65800;BME280;52544;48.116;11.660;2023-06-04T04:00:28;95645.66;;;11.81;100.00
65800;BME280;52544;48.116;11.660;2023-06-04T04:02:53;95638.97;;;12.06;100.00
65800;BME280;52544;48.116;11.660;2023-06-04T04:05:19;95646.94;;;12.06;100.00
65800;BME280;52544;48.116;11.660;2023-06-04T04:07:44;95647.38;;;12.31;100.00
65800;BME280;52544;48.116;11.660;2023-06-04T04:10:10;95647.09;;;12.34;100.00
65800;BME280;52544;48.116;11.660;2023-06-04T04:12:35;95645.00;;;12.08;100.00
65800;BME280;52544;48.116;11.660;2023-06-04T04:15:01;95642.06;;;12.31;100.00
65800;BME280;52544;48.116;11.660;2023-06-04T04:17:26;95645.16;;;12.45;100.00
65800;BME280;52544;48.116;11.660;2023-06-04T04:19:52;95643.16;;;12.47;100.00
65800;BME280;52544;48.116;11.660;2023-06-04T04:22:17;95645.97;;;12.26;100.00
65800;BME280;52544;48.116;11.660;2023-06-04T04:24:43;95647.66;;;12.28;100.00
65800;BME280;52544;48.116;11.660;2023-06-04T04:27:09;95652.41;;;12.34;100.00
65800;BME280;52544;48.116;11.660;2023-06-04T04:29:36;95652.97;;;12.37;100.00
65800;BME280;52544;48.116;11.660;2023-06-04T04:32:02;95655.75;;;12.55;100.00
65800;BME280;52544;48.116;11.660;2023-06-04T04:34:36;95662.72;;;12.66;100.00
65800;BME280;52544;48.116;11.660;2023-06-04T04:37:07;95655.56;;;12.76;100.00
65800;BME280;52544;48.116;11.660;2023-06-04T04:39:35;95668.81;;;12.86;100.00
65800;BME280;52544;48.116;11.660;2023-06-04T04:42:01;95660.72;;;12.97;100.00
65800;BME280;52544;48.116;11.660;2023-06-04T04:44:27;95668.66;;;13.07;100.00
65800;BME280;52544;48.116;11.660;2023-06-04T04:46:52;95668.91;;;13.13;100.00
65800;BME280;52544;48.116;11.660;2023-06-04T04:49:18;95674.22;;;13.23;100.00
65800;BME280;52544;48.116;11.660;2023-06-04T04:51:43;95673.19;;;13.34;100.00
65800;BME280;52544;48.116;11.660;2023-06-04T04:54:08;95667.03;;;13.43;100.00
65800;BME280;52544;48.116;11.660;2023-06-04T04:56:34;95673.19;;;13.43;100.00
65800;BME280;52544;48.116;11.660;2023-06-04T04:59:00;95676.38;;;13.47;100.00
65800;BME280;52544;48.116;11.660;2023-06-04T05:01:26;95677.44;;;13.54;100.00
65800;BME280;52544;48.116;11.660;2023-06-04T05:03:52;95676.28;;;13.66;100.00
65800;BME280;52544;48.116;11.660;2023-06-04T05:06:17;95676.00;;;13.69;100.00
65800;BME280;52544;48.116;11.660;2023-06-04T05:08:42;95680.91;;;13.64;100.00
65800;BME280;52544;48.116;11.660;2023-06-04T05:11:08;95680.56;;;13.77;100.00
65800;BME280;52544;48.116;11.660;2023-06-04T05:13:34;95680.50;;;13.87;100.00
65800;BME280;52544;48.116;11.660;2023-06-04T05:16:00;95686.13;;;13.84;100.00
65800;BME280;52544;48.116;11.660;2023-06-04T05:18:37;95687.22;;;13.91;99.45
65800;BME280;52544;48.116;11.660;2023-06-04T05:21:06;95684.34;;;14.02;98.42
65800;BME280;52544;48.116;11.660;2023-06-04T05:23:32;95690.63;;;14.01;95.18
65800;BME280;52544;48.116;11.660;2023-06-04T05:26:02;95690.34;;;14.04;92.18
65800;BME280;52544;48.116;11.660;2023-06-04T05:28:28;95691.59;;;14.28;92.18
65800;BME280;52544;48.116;11.660;2023-06-04T05:30:53;95693.13;;;14.30;95.27
65800;BME280;52544;48.116;11.660;2023-06-04T05:33:28;95695.31;;;14.35;93.48
65800;BME280;52544;48.116;11.660;2023-06-04T05:35:53;95692.00;;;14.33;88.21
65800;BME280;52544;48.116;11.660;2023-06-04T05:38:20;95696.69;;;14.39;86.21
65800;BME280;52544;48.116;11.660;2023-06-04T05:40:45;95697.94;;;14.44;89.52
65800;BME280;52544;48.116;11.660;2023-06-04T05:43:11;95694.38;;;14.54;91.51
65800;BME280;52544;48.116;11.660;2023-06-04T05:45:37;95693.28;;;14.64;92.53
65800;BME280;52544;48.116;11.660;2023-06-04T05:48:03;95699.31;;;14.66;90.35
65800;BME280;52544;48.116;11.660;2023-06-04T05:50:29;95711.72;;;14.75;88.52
65800;BME280;52544;48.116;11.660;2023-06-04T05:52:55;95709.25;;;14.82;87.21
65800;BME280;52544;48.116;11.660;2023-06-04T05:55:21;95722.06;;;14.96;86.41
65800;BME280;52544;48.116;11.660;2023-06-04T05:57:48;95725.91;;;15.02;84.26
65800;BME280;52544;48.116;11.660;2023-06-04T06:00:14;95726.69;;;15.12;81.34
65800;BME280;52544;48.116;11.660;2023-06-04T06:02:39;95726.34;;;15.15;81.15
65800;BME280;52544;48.116;11.660;2023-06-04T06:05:05;95723.91;;;15.22;80.95
65800;BME280;52544;48.116;11.660;2023-06-04T06:07:33;95725.41;;;15.24;80.58
65800;BME280;52544;48.116;11.660;2023-06-04T06:09:59;95727.47;;;15.31;80.90
65800;BME280;52544;48.116;11.660;2023-06-04T06:12:25;95720.66;;;15.36;81.12
65800;BME280;52544;48.116;11.660;2023-06-04T06:14:50;95721.72;;;15.43;76.71
65800;BME280;52544;48.116;11.660;2023-06-04T06:17:16;95723.00;;;15.39;78.31
65800;BME280;52544;48.116;11.660;2023-06-04T06:19:41;95720.59;;;15.54;78.99
65800;BME280;52544;48.116;11.660;2023-06-04T06:22:07;95719.44;;;15.57;81.85
65800;BME280;52544;48.116;11.660;2023-06-04T06:24:32;95725.53;;;15.67;79.78
65800;BME280;52544;48.116;11.660;2023-06-04T06:26:58;95728.41;;;15.73;79.51
65800;BME280;52544;48.116;11.660;2023-06-04T06:29:23;95732.75;;;15.74;79.36
65800;BME280;52544;48.116;11.660;2023-06-04T06:31:48;95732.44;;;15.78;77.74
65800;BME280;52544;48.116;11.660;2023-06-04T06:34:14;95736.13;;;15.85;78.28
65800;BME280;52544;48.116;11.660;2023-06-04T06:36:39;95734.22;;;16.03;80.24
65800;BME280;52544;48.116;11.660;2023-06-04T06:39:05;95744.06;;;16.03;76.96
65800;BME280;52544;48.116;11.660;2023-06-04T06:41:30;95748.31;;;16.30;75.82
65800;BME280;52544;48.116;11.660;2023-06-04T06:43:57;95746.69;;;16.45;77.98
65800;BME280;52544;48.116;11.660;2023-06-04T06:46:22;95741.72;;;16.58;75.49
65800;BME280;52544;48.116;11.660;2023-06-04T06:48:48;95743.38;;;16.59;74.89
65800;BME280;52544;48.116;11.660;2023-06-04T06:51:14;95747.13;;;16.74;75.06
65800;BME280;52544;48.116;11.660;2023-06-04T06:53:39;95738.75;;;16.86;76.88
65800;BME280;52544;48.116;11.660;2023-06-04T06:56:06;95737.44;;;16.90;78.39
65800;BME280;52544;48.116;11.660;2023-06-04T06:58:31;95730.94;;;17.09;78.28
65800;BME280;52544;48.116;11.660;2023-06-04T07:00:57;95733.59;;;17.09;74.71
65800;BME280;52544;48.116;11.660;2023-06-04T07:03:22;95730.09;;;17.16;75.74
65800;BME280;52544;48.116;11.660;2023-06-04T07:05:47;95731.44;;;17.20;78.03
65800;BME280;52544;48.116;11.660;2023-06-04T07:08:14;95732.91;;;17.23;75.87
65800;BME280;52544;48.116;11.660;2023-06-04T07:10:39;95731.06;;;17.23;76.32
65800;BME280;52544;48.116;11.660;2023-06-04T07:13:05;95735.78;;;17.30;79.70
65800;BME280;52544;48.116;11.660;2023-06-04T07:15:30;95727.56;;;17.31;80.36
65800;BME280;52544;48.116;11.660;2023-06-04T07:17:56;95734.06;;;17.45;78.93
65800;BME280;52544;48.116;11.660;2023-06-04T07:20:21;95733.41;;;17.51;80.26
65800;BME280;52544;48.116;11.660;2023-06-04T07:22:47;95730.53;;;17.61;79.53
65800;BME280;52544;48.116;11.660;2023-06-04T07:25:12;95736.88;;;17.60;74.37
65800;BME280;52544;48.116;11.660;2023-06-04T07:27:37;95727.34;;;17.65;83.16
65800;BME280;52544;48.116;11.660;2023-06-04T07:30:03;95734.03;;;17.78;79.71
65800;BME280;52544;48.116;11.660;2023-06-04T07:32:29;95722.28;;;17.87;78.66
65800;BME280;52544;48.116;11.660;2023-06-04T07:34:54;95730.28;;;17.95;80.15
65800;BME280;52544;48.116;11.660;2023-06-04T07:37:20;95717.88;;;18.02;77.01
65800;BME280;52544;48.116;11.660;2023-06-04T07:39:45;95724.66;;;18.21;77.76
65800;BME280;52544;48.116;11.660;2023-06-04T07:42:11;95723.06;;;18.35;75.44
65800;BME280;52544;48.116;11.660;2023-06-04T07:44:36;95723.03;;;18.43;77.86
65800;BME280;52544;48.116;11.660;2023-06-04T07:47:02;95722.94;;;18.59;79.02
65800;BME280;52544;48.116;11.660;2023-06-04T07:49:28;95719.13;;;18.54;75.01
65800;BME280;52544;48.116;11.660;2023-06-04T07:51:53;95730.34;;;18.57;72.30
65800;BME280;52544;48.116;11.660;2023-06-04T07:54:18;95723.41;;;18.63;75.07
65800;BME280;52544;48.116;11.660;2023-06-04T07:56:44;95730.91;;;18.76;72.07
65800;BME280;52544;48.116;11.660;2023-06-04T07:59:09;95721.09;;;18.91;77.78
65800;BME280;52544;48.116;11.660;2023-06-04T08:01:35;95727.38;;;18.98;70.65
65800;BME280;52544;48.116;11.660;2023-06-04T08:04:00;95727.03;;;19.01;68.60
65800;BME280;52544;48.116;11.660;2023-06-04T08:06:26;95717.13;;;19.02;68.43
65800;BME280;52544;48.116;11.660;2023-06-04T08:08:52;95722.25;;;19.11;70.61
65800;BME280;52544;48.116;11.660;2023-06-04T08:11:18;95725.72;;;19.20;70.60
65800;BME280;52544;48.116;11.660;2023-06-04T08:13:44;95722.03;;;19.21;68.48
65800;BME280;52544;48.116;11.660;2023-06-04T08:16:09;95724.50;;;19.22;68.09
65800;BME280;52544;48.116;11.660;2023-06-04T08:18:39;95727.38;;;19.21;66.37
65800;BME280;52544;48.116;11.660;2023-06-04T08:21:05;95727.63;;;19.11;66.01
65800;BME280;52544;48.116;11.660;2023-06-04T08:23:31;95729.88;;;19.22;64.78
65800;BME280;52544;48.116;11.660;2023-06-04T08:25:57;95723.59;;;19.30;71.89
65800;BME280;52544;48.116;11.660;2023-06-04T08:28:24;95728.56;;;19.41;68.67
65800;BME280;52544;48.116;11.660;2023-06-04T08:30:49;95726.97;;;19.47;66.17
65800;BME280;52544;48.116;11.660;2023-06-04T08:33:15;95721.81;;;19.60;68.51
65800;BME280;52544;48.116;11.660;2023-06-04T08:35:40;95722.66;;;19.61;64.00
65800;BME280;52544;48.116;11.660;2023-06-04T08:38:05;95728.91;;;19.76;72.21
65800;BME280;52544;48.116;11.660;2023-06-04T08:40:31;95724.44;;;19.83;64.47
65800;BME280;52544;48.116;11.660;2023-06-04T08:42:56;95723.16;;;19.94;68.04
65800;BME280;52544;48.116;11.660;2023-06-04T08:45:24;95725.47;;;19.97;60.86
65800;BME280;52544;48.116;11.660;2023-06-04T08:47:51;95722.88;;;20.04;64.08
65800;BME280;52544;48.116;11.660;2023-06-04T08:50:19;95726.69;;;20.09;61.11
65800;BME280;52544;48.116;11.660;2023-06-04T08:52:45;95728.69;;;20.07;61.85
65800;BME280;52544;48.116;11.660;2023-06-04T08:55:12;95724.72;;;20.18;63.75
65800;BME280;52544;48.116;11.660;2023-06-04T08:57:39;95724.31;;;20.36;69.35
65800;BME280;52544;48.116;11.660;2023-06-04T09:00:06;95724.31;;;20.36;64.74
65800;BME280;52544;48.116;11.660;2023-06-04T09:02:35;95730.78;;;20.41;62.34
65800;BME280;52544;48.116;11.660;2023-06-04T09:05:03;95722.06;;;20.54;66.12
65800;BME280;52544;48.116;11.660;2023-06-04T09:07:29;95725.81;;;20.75;71.93
65800;BME280;52544;48.116;11.660;2023-06-04T09:09:56;95723.19;;;20.81;65.29
65800;BME280;52544;48.116;11.660;2023-06-04T09:12:23;95722.09;;;20.76;60.53
65800;BME280;52544;48.116;11.660;2023-06-04T09:14:49;95720.06;;;20.78;61.01
65800;BME280;52544;48.116;11.660;2023-06-04T09:17:24;95713.91;;;20.84;66.85
65800;BME280;52544;48.116;11.660;2023-06-04T09:19:51;95717.25;;;21.07;71.35
65800;BME280;52544;48.116;11.660;2023-06-04T09:22:16;95717.78;;;20.96;61.86
65800;BME280;52544;48.116;11.660;2023-06-04T09:24:44;95721.16;;;21.05;70.22
65800;BME280;52544;48.116;11.660;2023-06-04T09:27:19;95710.50;;;21.18;69.22
65800;BME280;52544;48.116;11.660;2023-06-04T09:29:56;95720.19;;;21.12;57.03
65800;BME280;52544;48.116;11.660;2023-06-04T09:32:29;95718.84;;;21.23;65.84
65800;BME280;52544;48.116;11.660;2023-06-04T09:37:43;95721.53;;;21.44;66.46
65800;BME280;52544;48.116;11.660;2023-06-04T09:40:09;95716.00;;;21.31;49.75
65800;BME280;52544;48.116;11.660;2023-06-04T09:45:09;95708.41;;;21.35;55.11
65800;BME280;52544;48.116;11.660;2023-06-04T09:47:42;95706.47;;;21.50;58.48
65800;BME280;52544;48.116;11.660;2023-06-04T09:50:09;95715.16;;;21.52;52.13
65800;BME280;52544;48.116;11.660;2023-06-04T09:52:35;95706.81;;;21.68;55.76
65800;BME280;52544;48.116;11.660;2023-06-04T09:55:03;95709.53;;;21.47;50.01
65800;BME280;52544;48.116;11.660;2023-06-04T09:57:29;95706.50;;;21.57;52.89
65800;BME280;52544;48.116;11.660;2023-06-04T09:59:56;95705.66;;;21.50;51.40
65800;BME280;52544;48.116;11.660;2023-06-04T10:02:22;95707.41;;;21.70;52.56
65800;BME280;52544;48.116;11.660;2023-06-04T10:04:55;95702.38;;;21.89;52.75
65800;BME280;52544;48.116;11.660;2023-06-04T10:07:25;95699.22;;;22.13;57.76
65800;BME280;52544;48.116;11.660;2023-06-04T10:09:52;95707.47;;;22.12;49.22
65800;BME280;52544;48.116;11.660;2023-06-04T10:12:31;95706.84;;;22.10;48.79
65800;BME280;52544;48.116;11.660;2023-06-04T10:15:10;95710.00;;;22.13;47.14
65800;BME280;52544;48.116;11.660;2023-06-04T10:17:36;95699.28;;;22.27;57.90
65800;BME280;52544;48.116;11.660;2023-06-04T10:20:02;95702.44;;;22.37;55.99
65800;BME280;52544;48.116;11.660;2023-06-04T10:22:31;95691.03;;;22.41;52.14
65800;BME280;52544;48.116;11.660;2023-06-04T10:24:58;95691.06;;;22.55;54.38
65800;BME280;52544;48.116;11.660;2023-06-04T10:27:24;95706.03;;;22.57;45.97
65800;BME280;52544;48.116;11.660;2023-06-04T10:29:50;95714.72;;;22.53;44.13
65800;BME280;52544;48.116;11.660;2023-06-04T10:32:16;95705.38;;;22.49;44.51
65800;BME280;52544;48.116;11.660;2023-06-04T10:34:42;95706.03;;;22.57;48.79
65800;BME280;52544;48.116;11.660;2023-06-04T10:37:21;95698.16;;;22.62;48.97
65800;BME280;52544;48.116;11.660;2023-06-04T10:39:55;95701.06;;;22.67;49.95
65800;BME280;52544;48.116;11.660;2023-06-04T10:42:22;95706.72;;;22.73;46.25
65800;BME280;52544;48.116;11.660;2023-06-04T10:44:49;95708.13;;;22.62;43.57
65800;BME280;52544;48.116;11.660;2023-06-04T10:47:22;95708.03;;;22.42;43.36
65800;BME280;52544;48.116;11.660;2023-06-04T10:49:53;95703.25;;;22.37;44.91
65800;BME280;52544;48.116;11.660;2023-06-04T10:52:19;95703.47;;;22.36;45.10
65800;BME280;52544;48.116;11.660;2023-06-04T10:54:46;95698.56;;;22.53;43.26
65800;BME280;52544;48.116;11.660;2023-06-04T10:57:17;95690.25;;;22.54;48.57
65800;BME280;52544;48.116;11.660;2023-06-04T10:59:56;95699.03;;;22.69;42.42
65800;BME280;52544;48.116;11.660;2023-06-04T11:02:22;95692.47;;;22.99;49.16
65800;BME280;52544;48.116;11.660;2023-06-04T11:04:58;95693.28;;;22.92;42.33
65800;BME280;52544;48.116;11.660;2023-06-04T11:07:26;95686.66;;;23.22;50.10
65800;BME280;52544;48.116;11.660;2023-06-04T11:09:52;95688.53;;;23.21;46.82
65800;BME280;52544;48.116;11.660;2023-06-04T11:12:17;95688.53;;;23.28;43.36
65800;BME280;52544;48.116;11.660;2023-06-04T11:14:56;95687.50;;;23.42;46.06
65800;BME280;52544;48.116;11.660;2023-06-04T11:17:22;95692.03;;;23.61;43.60
65800;BME280;52544;48.116;11.660;2023-06-04T11:19:47;95688.31;;;23.56;41.31
65800;BME280;52544;48.116;11.660;2023-06-04T11:22:13;95690.84;;;23.71;41.45
65800;BME280;52544;48.116;11.660;2023-06-04T11:24:38;95678.34;;;23.76;40.49
65800;BME280;52544;48.116;11.660;2023-06-04T11:27:04;95682.72;;;23.77;44.53
65800;BME280;52544;48.116;11.660;2023-06-04T11:29:29;95690.81;;;23.84;44.83
65800;BME280;52544;48.116;11.660;2023-06-04T11:31:54;95690.97;;;24.02;43.22
65800;BME280;52544;48.116;11.660;2023-06-04T11:34:27;95690.09;;;24.08;39.59
65800;BME280;52544;48.116;11.660;2023-06-04T11:36:53;95681.94;;;24.28;40.75
65800;BME280;52544;48.116;11.660;2023-06-04T11:39:19;95675.47;;;24.36;40.67
65800;BME280;52544;48.116;11.660;2023-06-04T11:41:45;95685.16;;;24.05;41.06
65800;BME280;52544;48.116;11.660;2023-06-04T11:44:11;95680.03;;;24.35;44.34
65800;BME280;52544;48.116;11.660;2023-06-04T11:46:41;95686.09;;;24.31;39.23
65800;BME280;52544;48.116;11.660;2023-06-04T11:49:11;95665.91;;;24.40;39.21
65800;BME280;52544;48.116;11.660;2023-06-04T11:51:37;95670.03;;;24.49;40.21
65800;BME280;52544;48.116;11.660;2023-06-04T11:54:03;95672.41;;;24.26;39.34
65800;BME280;52544;48.116;11.660;2023-06-04T11:56:28;95676.22;;;23.98;39.68
65800;BME280;52544;48.116;11.660;2023-06-04T11:58:54;95675.00;;;23.87;41.09
65800;BME280;52544;48.116;11.660;2023-06-04T12:01:20;95666.88;;;23.94;41.95
65800;BME280;52544;48.116;11.660;2023-06-04T12:03:46;95672.91;;;23.96;41.75
65800;BME280;52544;48.116;11.660;2023-06-04T12:08:54;95659.66;;;23.68;46.24
65800;BME280;52544;48.116;11.660;2023-06-04T12:11:31;95658.16;;;23.92;44.29
65800;BME280;52544;48.116;11.660;2023-06-04T12:14:05;95663.28;;;24.13;40.19
65800;BME280;52544;48.116;11.660;2023-06-04T12:16:31;95670.00;;;23.91;43.55
65800;BME280;52544;48.116;11.660;2023-06-04T12:19:11;95670.41;;;23.94;41.77
65800;BME280;52544;48.116;11.660;2023-06-04T12:21:37;95672.22;;;24.07;39.63
65800;BME280;52544;48.116;11.660;2023-06-04T12:26:36;95661.69;;;23.92;38.26
65800;BME280;52544;48.116;11.660;2023-06-04T12:29:16;95652.53;;;23.87;37.92
65800;BME280;52544;48.116;11.660;2023-06-04T12:31:43;95664.53;;;24.11;40.15
65800;BME280;52544;48.116;11.660;2023-06-04T12:34:10;95662.06;;;24.03;38.81
65800;BME280;52544;48.116;11.660;2023-06-04T12:36:36;95660.50;;;23.68;37.91
65800;BME280;52544;48.116;11.660;2023-06-04T12:39:04;95661.53;;;23.54;38.31
65800;BME280;52544;48.116;11.660;2023-06-04T12:41:31;95656.69;;;23.96;38.81
65800;BME280;52544;48.116;11.660;2023-06-04T12:43:59;95659.53;;;24.14;39.15
65800;BME280;52544;48.116;11.660;2023-06-04T12:46:25;95658.47;;;24.22;39.07
65800;BME280;52544;48.116;11.660;2023-06-04T12:48:52;95654.66;;;24.36;40.14
65800;BME280;52544;48.116;11.660;2023-06-04T12:51:17;95647.31;;;24.50;39.12
65800;BME280;52544;48.116;11.660;2023-06-04T12:53:43;95644.53;;;24.63;36.49
65800;BME280;52544;48.116;11.660;2023-06-04T12:56:09;95638.50;;;24.68;36.56